Time;durP1;ratioP1;P1;durP2;ratioP2;P2;SDS_P1;SDS_P2;PMS_P1;PMS_P2;Temp;Humidity;BMP_temperature;BMP_pressure;BME280_temperature;BME280_humidity;BME280_pressure;Samples;Min_cycle;Max_cycle;Signal;HPM_P1;HPM_P2
2023/06/23 00:02:17;;;;;;;14.27;11.63;;;;;;;22.22;75.69;97336.47;5026988;28;20293;-77
2023/06/23 00:04:44;;;;;;;13.17;11.77;;;;;;;22.00;76.78;97332.25;5025697;28;20257;-73
2023/06/23 00:07:11;;;;;;;13.00;11.10;;;;;;;21.78;76.94;97337.69;5003395;28;20231;-74
2023/06/23 00:09:38;;;;;;;12.40;11.10;;;;;;;21.84;76.44;97326.63;5030520;28;20623;-78
2023/06/23 00:12:07;;;;;;;13.97;10.67;;;;;;;21.94;76.21;97342.47;5029831;28;20597;-74
2023/06/23 00:14:34;;;;;;;13.03;10.97;;;;;;;21.75;76.84;97325.59;5030864;28;20211;-74
2023/06/23 00:17:02;;;;;;;11.20;9.97;;;;;;;21.66;76.74;97334.28;5029107;28;20272;-74
2023/06/23 00:19:31;;;;;;;13.57;10.77;;;;;;;21.68;76.75;97331.50;5030715;28;20199;-74
2023/06/23 00:21:58;;;;;;;14.73;12.53;;;;;;;21.54;77.68;97326.56;5029522;28;20216;-77
2023/06/23 00:24:27;;;;;;;17.20;12.37;;;;;;;21.04;79.71;97317.69;5030300;28;20258;-73
2023/06/23 00:26:54;;;;;;;13.03;11.63;;;;;;;21.16;80.18;97318.44;5030046;28;20203;-77
2023/06/23 00:29:21;;;;;;;13.07;11.67;;;;;;;20.91;81.68;97322.25;5029390;28;20197;-77
2023/06/23 00:31:49;;;;;;;15.47;11.97;;;;;;;20.75;82.00;97311.31;5030255;28;20203;-77
2023/06/23 00:34:16;;;;;;;15.80;12.63;;;;;;;20.67;82.39;97317.19;5028865;28;20212;-77
2023/06/23 00:36:43;;;;;;;14.70;12.90;;;;;;;20.67;82.71;97313.75;5030103;28;20210;-75
2023/06/23 00:39:11;;;;;;;16.07;12.87;;;;;;;20.66;82.87;97317.31;5028342;28;20553;-75
2023/06/23 00:41:38;;;;;;;14.87;12.50;;;;;;;20.70;82.60;97311.69;5030185;28;20199;-76
2023/06/23 00:44:10;;;;;;;13.37;11.77;;;;;;;20.83;81.41;97296.56;5011506;28;20295;-77
2023/06/23 00:46:37;;;;;;;17.47;13.33;;;;;;;20.99;80.42;97302.22;5029017;28;20548;-76
2023/06/23 00:49:04;;;;;;;15.63;13.00;;;;;;;21.02;79.42;97288.81;5029924;28;20206;-77
2023/06/23 00:51:31;;;;;;;13.10;11.67;;;;;;;21.31;78.58;97311.91;5010698;28;20202;-74
2023/06/23 00:53:59;;;;;;;13.23;11.83;;;;;;;21.15;78.70;97306.22;5030034;28;20301;-77
2023/06/23 00:56:27;;;;;;;15.13;12.50;;;;;;;20.89;79.73;97301.31;5028394;28;20210;-76
2023/06/23 00:58:55;;;;;;;18.17;12.47;;;;;;;21.00;79.49;97305.66;5030272;28;20211;-76
2023/06/23 01:01:22;;;;;;;15.70;11.47;;;;;;;21.14;78.58;97304.56;5011944;28;20207;-78
2023/06/23 01:03:49;;;;;;;12.97;11.23;;;;;;;21.13;78.84;97303.72;5029230;28;20238;-76
2023/06/23 01:06:55;;;;;;;13.77;10.80;;;;;;;21.50;77.11;97301.44;5012337;28;20206;-76
2023/06/23 01:09:37;;;;;;;13.13;10.97;;;;;;;21.63;76.58;97315.25;5010663;28;20203;-76
2023/06/23 01:12:14;;;;;;;13.60;11.33;;;;;;;21.74;76.17;97316.00;5011835;28;20216;-76
2023/06/23 01:14:56;;;;;;;14.10;11.13;;;;;;;21.86;75.50;97320.22;5012029;28;20589;-77
2023/06/23 01:17:35;;;;;;;13.20;11.20;;;;;;;21.77;75.57;97320.16;5010556;28;20238;-77
2023/06/23 01:20:21;;;;;;;12.73;10.70;;;;;;;21.82;75.95;97318.03;5029466;28;20195;-78
2023/06/23 01:23:11;;;;;;;11.27;9.90;;;;;;;21.91;75.06;97319.84;5028711;28;20240;-78
2023/06/23 01:26:03;;;;;;;13.17;11.23;;;;;;;21.63;76.09;97318.72;5010710;28;20286;-78
2023/06/23 01:28:46;;;;;;;14.17;11.17;;;;;;;21.60;75.84;97291.78;5029334;28;20208;-75
2023/06/23 01:31:20;;;;;;;14.40;12.30;;;;;;;21.88;75.17;97313.03;5028028;28;20295;-76
2023/06/23 01:34:30;;;;;;;14.93;12.63;;;;;;;21.82;75.85;97315.38;5029193;28;20299;-78
2023/06/23 01:37:51;;;;;;;13.53;12.10;;;;;;;21.86;75.29;97307.06;5028516;28;20560;-78
2023/06/23 01:41:12;;;;;;;16.50;12.57;;;;;;;21.88;75.46;97310.38;5010377;28;20226;-79
2023/06/23 01:44:33;;;;;;;16.60;13.83;;;;;;;21.63;76.63;97302.91;5026546;28;20231;-79
2023/06/23 01:47:53;;;;;;;17.70;15.10;;;;;;;21.40;77.81;97296.13;5026687;28;20223;-78
2023/06/23 01:51:17;;;;;;;16.40;14.33;;;;;;;21.45;77.85;97304.47;5010467;28;20203;-73
2023/06/23 01:54:38;;;;;;;20.90;14.17;;;;;;;21.57;77.30;97305.25;5028054;28;20197;-75
2023/06/23 01:57:58;;;;;;;14.37;12.87;;;;;;;21.59;77.65;97316.47;5026708;28;20202;-75
2023/06/23 02:01:19;;;;;;;15.37;12.97;;;;;;;21.46;78.35;97308.78;5008966;28;20726;-72
2023/06/23 02:04:41;;;;;;;15.47;13.03;;;;;;;21.08;79.10;97275.13;5009591;28;20234;-72
2023/06/23 02:08:01;;;;;;;21.10;15.23;;;;;;;21.23;79.31;97309.03;5027573;28;20211;-77
2023/06/23 02:11:22;;;;;;;17.93;14.20;;;;;;;21.26;79.09;97303.53;5027085;28;20207;-74
2023/06/23 02:14:43;;;;;;;15.97;13.23;;;;;;;21.36;78.42;97307.06;5008351;28;20205;-73
2023/06/23 02:18:05;;;;;;;18.83;13.73;;;;;;;20.95;79.51;97311.34;5026493;28;20195;-72
2023/06/23 02:21:45;;;;;;;19.10;14.57;;;;;;;20.93;79.78;97313.25;5028302;28;20214;-74
2023/06/23 02:25:06;;;;;;;15.43;13.47;;;;;;;20.91;79.67;97315.19;5027341;28;20245;-72
2023/06/23 02:28:26;;;;;;;18.37;14.27;;;;;;;20.38;81.91;97321.34;5008781;28;20611;-72
2023/06/23 02:31:47;;;;;;;23.93;13.93;;;;;;;20.46;82.38;97324.22;5025721;28;20716;-75
2023/06/23 02:35:08;;;;;;;15.97;13.40;;;;;;;20.28;82.95;97323.03;5026815;28;20215;-74
2023/06/23 02:38:29;;;;;;;17.63;13.63;;;;;;;20.20;83.22;97320.19;5026960;28;20269;-74
2023/06/23 02:41:51;;;;;;;17.77;13.13;;;;;;;20.41;82.25;97321.09;5026990;28;20205;-73
2023/06/23 02:45:14;;;;;;;18.23;13.67;;;;;;;20.75;80.86;97321.84;5025222;28;20382;-73
2023/06/23 02:48:35;;;;;;;18.10;13.90;;;;;;;20.85;79.53;97317.50;5025428;28;20322;-73
2023/06/23 02:51:56;;;;;;;18.37;13.77;;;;;;;20.82;79.81;97323.84;5026849;28;20210;-74
2023/06/23 02:55:17;;;;;;;20.27;13.60;;;;;;;20.90;79.67;97312.66;5026890;28;20211;-75
2023/06/23 02:58:37;;;;;;;18.80;14.37;;;;;;;20.82;79.68;97305.41;5008141;28;20206;-72
2023/06/23 03:01:58;;;;;;;16.30;13.20;;;;;;;20.51;80.70;97303.59;5025343;28;20207;-73
2023/06/23 03:05:21;;;;;;;15.67;13.10;;;;;;;20.03;81.91;97297.00;5008734;28;20230;-73
2023/06/23 03:08:41;;;;;;;16.67;13.60;;;;;;;19.86;83.77;97314.09;5025579;28;20205;-77
2023/06/23 03:12:02;;;;;;;15.67;13.47;;;;;;;19.96;83.70;97317.69;5026474;28;20199;-76
2023/06/23 03:15:23;;;;;;;19.40;14.73;;;;;;;19.62;85.42;97325.69;5024825;28;20340;-75
2023/06/23 03:18:44;;;;;;;20.97;15.83;;;;;;;19.69;85.05;97311.09;5022094;28;20206;-75
2023/06/23 03:22:05;;;;;;;19.23;15.53;;;;;;;19.66;84.58;97308.72;5009030;28;20194;-76
2023/06/23 03:25:28;;;;;;;18.83;15.30;;;;;;;19.92;83.42;97315.41;5027003;28;20238;-76
2023/06/23 03:28:49;;;;;;;24.73;15.97;;;;;;;20.06;82.53;97320.41;5025431;28;20277;-77
2023/06/23 03:32:10;;;;;;;24.07;16.03;;;;;;;20.42;81.04;97311.41;5024883;28;20284;-73
2023/06/23 03:35:31;;;;;;;22.07;16.47;;;;;;;20.73;79.73;97310.59;5008718;28;20194;-76
2023/06/23 03:38:52;;;;;;;20.03;16.53;;;;;;;20.50;79.92;97309.84;5015504;28;20436;-77
2023/06/23 03:42:12;;;;;;;20.10;16.63;;;;;;;20.42;80.63;97304.38;5011741;28;20214;-76
2023/06/23 03:45:33;;;;;;;18.33;15.17;;;;;;;20.51;80.35;97308.88;5026673;28;20206;-77
2023/06/23 03:48:54;;;;;;;19.07;15.57;;;;;;;20.80;78.76;97309.97;5022838;28;20219;-75
2023/06/23 03:52:15;;;;;;;19.90;14.60;;;;;;;21.65;76.06;97310.69;5020476;28;20349;-76
2023/06/23 03:55:35;;;;;;;18.50;14.60;;;;;;;22.07;73.77;97300.91;5010443;28;20295;-78
2023/06/23 03:58:56;;;;;;;19.23;13.93;;;;;;;22.58;72.36;97328.81;5009371;28;20300;-78
2023/06/23 04:02:19;;;;;;;16.97;12.83;;;;;;;22.92;70.36;97323.97;5008906;28;20218;-79
2023/06/23 04:05:40;;;;;;;18.47;13.23;;;;;;;23.00;70.62;97336.50;5010259;28;20229;-76
2023/06/23 04:09:01;;;;;;;16.67;13.57;;;;;;;22.91;71.02;97327.59;5015512;28;20218;-74
2023/06/23 04:12:22;;;;;;;15.70;13.80;;;;;;;22.62;72.20;97322.31;5018526;28;20202;-74
2023/06/23 04:15:43;;;;;;;16.33;13.00;;;;;;;23.16;70.11;97327.00;4990942;28;20206;-76
2023/06/23 04:19:03;;;;;;;15.13;13.37;;;;;;;23.08;70.61;97328.72;5009309;28;20200;-75
2023/06/23 04:22:24;;;;;;;15.53;13.00;;;;;;;23.49;69.58;97336.34;5009580;28;20208;-76
2023/06/23 04:25:48;;;;;;;17.17;12.70;;;;;;;22.56;72.44;97332.53;5009761;28;20205;-77
2023/06/23 04:29:08;;;;;;;15.90;12.63;;;;;;;22.37;73.89;97327.22;5008154;28;20282;-80
2023/06/23 04:31:52;;;;;;;15.33;12.10;;;;;;;22.29;74.66;97321.78;4990743;28;20293;-78
2023/06/23 04:34:20;;;;;;;15.87;12.10;;;;;;;22.79;72.73;97323.44;5010425;28;20212;-79
2023/06/23 04:36:54;;;;;;;16.60;12.43;;;;;;;23.24;71.05;97318.38;5008784;28;20816;-77
2023/06/23 04:39:27;;;;;;;14.37;12.27;;;;;;;23.18;71.40;97337.47;5010349;28;20294;-79
2023/06/23 04:41:58;;;;;;;16.73;11.47;;;;;;;23.91;69.45;97327.00;5009524;28;20241;-80
2023/06/23 04:44:28;;;;;;;14.40;11.47;;;;;;;24.50;66.92;97336.38;5009830;28;20236;-79
2023/06/23 04:47:01;;;;;;;12.80;11.57;;;;;;;23.77;68.50;97330.13;5010318;28;20298;-76
2023/06/23 04:49:31;;;;;;;12.73;11.43;;;;;;;23.23;71.00;97324.63;4990975;28;20196;-78
2023/06/23 04:52:03;;;;;;;13.43;12.13;;;;;;;23.04;72.03;97329.97;5009853;28;20193;-77
2023/06/23 04:54:40;;;;;;;12.47;11.27;;;;;;;23.05;70.43;97310.47;5009035;28;20212;-76
2023/06/23 04:57:14;;;;;;;12.50;11.10;;;;;;;23.43;69.42;97334.25;5009723;28;20274;-77
2023/06/23 04:59:46;;;;;;;15.13;10.43;;;;;;;23.70;69.14;97329.03;5009994;28;20204;-74
2023/06/23 05:02:16;;;;;;;12.30;11.00;;;;;;;23.77;69.04;97318.69;5008425;28;20196;-77
2023/06/23 05:04:44;;;;;;;16.07;11.07;;;;;;;24.49;66.19;97332.88;4992567;28;20237;-77
2023/06/23 05:07:14;;;;;;;13.43;11.03;;;;;;;24.14;66.69;97327.50;5008302;28;20761;-77
2023/06/23 05:09:44;;;;;;;13.33;11.27;;;;;;;24.05;65.91;97294.78;4992459;28;20209;-76
2023/06/23 05:12:14;;;;;;;13.40;11.50;;;;;;;24.29;66.30;97341.06;5008685;28;20220;-74
2023/06/23 05:14:43;;;;;;;11.53;10.43;;;;;;;24.10;67.13;97328.78;5009011;28;20218;-75
2023/06/23 05:17:13;;;;;;;12.60;10.50;;;;;;;24.11;67.18;97333.09;5009692;28;20246;-75
2023/06/23 05:19:46;;;;;;;13.53;11.40;;;;;;;24.34;66.54;97330.88;5008104;28;20819;-76
2023/06/23 05:22:17;;;;;;;12.27;10.97;;;;;;;24.63;65.64;97331.53;5009520;28;20210;-76
2023/06/23 05:24:53;;;;;;;12.93;10.53;;;;;;;24.33;64.01;97247.13;5007810;28;20335;-75
2023/06/23 05:27:24;;;;;;;11.70;10.30;;;;;;;25.30;62.72;97333.69;5009246;28;20288;-76
2023/06/23 05:29:55;;;;;;;12.17;10.93;;;;;;;25.45;62.01;97324.22;5008864;28;20229;-77
2023/06/23 05:32:26;;;;;;;13.70;11.43;;;;;;;25.74;61.65;97338.81;5008086;28;20557;-75
2023/06/23 05:34:58;;;;;;;12.73;11.40;;;;;;;26.06;60.76;97340.84;4991642;28;20289;-77
2023/06/23 05:37:27;;;;;;;14.83;11.83;;;;;;;25.85;60.68;97329.75;5007344;28;20223;-77
2023/06/23 05:39:57;;;;;;;16.13;11.67;;;;;;;26.21;60.09;97333.97;5008726;28;20214;-75
2023/06/23 05:42:25;;;;;;;16.87;12.63;;;;;;;26.56;59.03;97351.53;4990453;28;20192;-76
2023/06/23 05:44:53;;;;;;;17.23;13.63;;;;;;;26.94;57.17;97355.44;5006756;28;20685;-76
2023/06/23 05:47:26;;;;;;;15.63;13.97;;;;;;;27.02;57.27;97350.13;5008244;28;20227;-76
2023/06/23 05:49:59;;;;;;;20.63;13.63;;;;;;;27.17;57.24;97349.34;5007144;28;20214;-76
2023/06/23 05:52:34;;;;;;;16.10;13.20;;;;;;;27.10;58.01;97355.50;5008393;28;20213;-76
2023/06/23 05:55:04;;;;;;;15.90;13.50;;;;;;;27.14;57.34;97364.81;5007007;28;20206;-75
2023/06/23 05:57:33;;;;;;;17.80;11.93;;;;;;;27.31;57.03;97331.88;5008849;28;20214;-76
2023/06/23 06:00:09;;;;;;;17.83;13.07;;;;;;;27.61;56.66;97365.00;5007795;28;20241;-75
2023/06/23 06:02:43;;;;;;;15.10;13.27;;;;;;;27.14;57.43;97365.63;5007012;28;20214;-76
2023/06/23 06:05:17;;;;;;;20.80;13.17;;;;;;;27.32;57.51;97350.34;5007246;28;20941;-77
2023/06/23 06:07:46;;;;;;;16.57;12.67;;;;;;;27.60;56.86;97364.16;5007052;28;20214;-78
2023/06/23 06:10:15;;;;;;;14.60;12.33;;;;;;;27.26;57.63;97359.00;5008283;28;20250;-78
2023/06/23 06:12:45;;;;;;;22.60;14.47;;;;;;;27.58;57.48;97360.00;5007168;28;20199;-76
2023/06/23 06:15:17;;;;;;;15.67;11.23;;;;;;;27.59;55.32;97359.00;5007687;28;20211;-78
2023/06/23 06:17:45;;;;;;;14.27;10.73;;;;;;;27.56;55.45;97346.03;5008089;28;20238;-76
2023/06/23 06:20:15;;;;;;;18.07;10.83;;;;;;;27.74;54.21;97354.69;5006532;28;20290;-76
2023/06/23 06:22:45;;;;;;;14.00;10.00;;;;;;;28.02;54.24;97347.97;5007991;28;20239;-78
2023/06/23 06:25:13;;;;;;;22.80;13.20;;;;;;;27.47;56.61;97333.75;4988759;28;20793;-75
2023/06/23 06:27:47;;;;;;;18.83;13.20;;;;;;;27.19;57.09;97341.19;4990395;28;20457;-77
2023/06/23 06:30:17;;;;;;;20.77;15.13;;;;;;;27.22;58.21;97349.66;5005602;28;20199;-75
2023/06/23 06:32:46;;;;;;;17.30;13.40;;;;;;;26.88;58.82;97348.13;5007023;28;20766;-75
2023/06/23 06:35:15;;;;;;;20.43;13.00;;;;;;;26.78;60.20;97352.75;5008367;28;20215;-78
2023/06/23 06:37:47;;;;;;;22.40;12.63;;;;;;;27.05;59.02;97345.34;5006135;28;20243;-77
2023/06/23 06:40:21;;;;;;;16.67;12.20;;;;;;;26.54;59.87;97333.06;5008148;28;20289;-75
2023/06/23 06:42:48;;;;;;;23.77;14.73;;;;;;;26.99;58.88;97343.34;5005216;28;20199;-78
2023/06/23 06:45:16;;;;;;;16.80;12.13;;;;;;;27.07;58.68;97351.34;5006835;28;20266;-75
2023/06/23 06:47:44;;;;;;;19.87;13.43;;;;;;;27.61;57.29;97341.03;5006976;28;20743;-77
2023/06/23 06:50:19;;;;;;;13.97;11.30;;;;;;;26.99;57.16;97343.34;4989125;28;20203;-79
2023/06/23 06:52:48;;;;;;;14.93;11.87;;;;;;;27.26;58.41;97337.72;5007439;28;20198;-75
2023/06/23 06:55:20;;;;;;;14.00;12.20;;;;;;;27.45;57.17;97341.06;5005916;28;20207;-77
2023/06/23 06:57:48;;;;;;;12.63;11.10;;;;;;;27.41;56.07;97337.09;5022650;28;20226;-78
2023/06/23 07:00:20;;;;;;;15.33;10.57;;;;;;;26.84;57.22;97328.19;5025739;28;20205;-75
2023/06/23 07:03:23;;;;;;;12.43;10.57;;;;;;;27.53;56.39;97333.06;5008875;28;20658;-77
2023/06/23 07:05:51;;;;;;;14.57;11.17;;;;;;;28.01;54.93;97331.16;5038536;28;20322;-77
2023/06/23 07:08:18;;;;;;;15.17;9.50;;;;;;;28.17;53.41;97332.97;5034984;28;20754;-78
2023/06/23 07:10:45;;;;;;;9.93;8.90;;;;;;;27.91;54.34;97325.16;5029223;28;20268;-76
2023/06/23 07:13:52;;;;;;;9.07;7.57;;;;;;;28.13;52.78;97337.78;5044605;28;20293;-76
2023/06/23 07:17:12;;;;;;;9.43;8.43;;;;;;;28.32;54.73;97338.38;5025022;28;20284;-75
2023/06/23 07:20:33;;;;;;;11.73;9.03;;;;;;;28.23;53.36;97342.09;5045605;28;20267;-75
2023/06/23 07:23:54;;;;;;;11.83;10.60;;;;;;;28.41;55.29;97338.19;5045535;28;20202;-78
2023/06/23 07:26:37;;;;;;;11.50;10.40;;;;;;;28.56;54.27;97341.81;5035429;28;20213;-77
2023/06/23 07:29:04;;;;;;;13.53;11.30;;;;;;;28.73;54.60;97343.38;5025741;28;20201;-78
2023/06/23 07:31:33;;;;;;;11.13;9.73;;;;;;;28.43;54.98;97335.34;5026843;28;20669;-77
2023/06/23 07:34:00;;;;;;;12.53;10.07;;;;;;;28.61;54.85;97343.94;5025317;28;20199;-79
2023/06/23 07:36:27;;;;;;;10.93;9.90;;;;;;;28.49;54.71;97298.16;5026611;28;20693;-77
2023/06/23 07:38:54;;;;;;;17.03;11.03;;;;;;;28.80;54.90;97331.00;5024864;28;20203;-78
2023/06/23 07:41:21;;;;;;;13.40;10.83;;;;;;;28.50;55.90;97339.78;5031785;28;20210;-77
2023/06/23 07:43:49;;;;;;;12.17;10.90;;;;;;;28.18;56.61;97327.44;5045414;28;20230;-79
2023/06/23 07:46:18;;;;;;;10.33;9.30;;;;;;;28.47;56.02;97334.81;5045640;28;20591;-78
2023/06/23 07:48:46;;;;;;;14.23;12.73;;;;;;;28.66;55.01;97321.09;5028566;28;20230;-77
2023/06/23 07:51:13;;;;;;;11.13;9.83;;;;;;;28.95;54.72;97326.53;5026966;28;20570;-76
2023/06/23 07:53:41;;;;;;;10.87;9.77;;;;;;;28.83;54.69;97325.31;5046332;28;20198;-77
2023/06/23 07:56:17;;;;;;;10.37;9.20;;;;;;;28.72;55.21;97324.88;5005211;28;20739;-77
2023/06/23 07:58:44;;;;;;;12.17;9.90;;;;;;;29.01;53.94;97316.19;5007252;28;20246;-78
2023/06/23 08:01:12;;;;;;;10.03;9.07;;;;;;;29.06;53.14;97311.16;5005970;28;20211;-79
2023/06/23 08:03:45;;;;;;;10.27;9.20;;;;;;;28.93;52.83;97303.75;5005572;28;20199;-78
2023/06/23 08:06:13;;;;;;;10.27;8.77;;;;;;;29.03;52.14;97311.50;5006476;28;20214;-77
2023/06/23 08:08:40;;;;;;;10.70;9.60;;;;;;;29.08;53.38;97317.97;5003426;28;20207;-77
2023/06/23 08:11:07;;;;;;;11.73;9.57;;;;;;;29.17;52.26;97313.44;5006593;28;20203;-76
2023/06/23 08:13:37;;;;;;;10.20;8.93;;;;;;;29.48;52.39;97320.34;5004950;28;20202;-77
2023/06/23 08:16:04;;;;;;;11.77;9.00;;;;;;;29.30;53.35;97297.66;5006667;28;20210;-78
2023/06/23 08:18:31;;;;;;;14.90;10.33;;;;;;;29.35;53.59;97305.94;5006080;28;20210;-76
2023/06/23 08:20:59;;;;;;;14.63;11.20;;;;;;;29.55;51.91;97307.09;5006069;28;20683;-78
2023/06/23 08:23:27;;;;;;;10.77;9.67;;;;;;;29.50;51.88;97302.28;5006598;28;20716;-77
2023/06/23 08:25:57;;;;;;;10.70;9.70;;;;;;;28.80;55.30;97320.34;5004884;28;20217;-79
2023/06/23 08:28:24;;;;;;;11.93;9.60;;;;;;;28.59;54.41;97305.97;5009114;28;20199;-78
2023/06/23 08:30:51;;;;;;;15.20;11.57;;;;;;;28.96;53.29;97308.72;5008650;28;20204;-78
2023/06/23 08:33:18;;;;;;;11.93;10.03;;;;;;;28.97;53.68;97297.84;5009681;28;20252;-80
2023/06/23 08:35:45;;;;;;;12.90;10.50;;;;;;;29.04;53.75;97307.84;4990742;28;20210;-79
2023/06/23 08:38:14;;;;;;;10.03;8.97;;;;;;;28.95;52.78;97309.75;5008979;28;20265;-77
2023/06/23 08:40:41;;;;;;;9.33;8.43;;;;;;;28.52;53.61;97302.31;5009793;28;20275;-79
2023/06/23 08:43:12;;;;;;;9.57;8.63;;;;;;;28.56;53.66;97283.19;5007959;28;20200;-77
2023/06/23 08:45:50;;;;;;;10.93;9.60;;;;;;;28.97;53.55;97287.19;5009912;28;20237;-78
2023/06/23 08:48:20;;;;;;;9.77;8.87;;;;;;;28.96;53.69;97268.72;4990598;28;20234;-77
2023/06/23 08:50:48;;;;;;;11.50;9.80;;;;;;;29.28;51.78;97279.16;5009663;28;20205;-78
2023/06/23 08:53:15;;;;;;;10.30;9.30;;;;;;;28.74;53.28;97290.88;5009185;28;20253;-80
2023/06/23 08:55:42;;;;;;;11.17;10.10;;;;;;;28.97;52.22;97281.84;5008875;28;20279;-78
2023/06/23 08:58:09;;;;;;;9.87;8.87;;;;;;;29.35;52.21;97296.09;5009561;28;20207;-77
2023/06/23 09:00:36;;;;;;;11.90;9.30;;;;;;;29.40;51.79;97282.22;4974150;28;20645;-77
2023/06/23 09:03:04;;;;;;;9.43;8.50;;;;;;;29.64;51.43;97280.13;5009277;28;20261;-75
2023/06/23 09:05:32;;;;;;;11.67;9.60;;;;;;;29.86;51.04;97304.31;5007548;28;20585;-78
2023/06/23 09:07:59;;;;;;;14.27;9.30;;;;;;;29.93;50.83;97298.03;4991453;28;20599;-76
2023/06/23 09:10:27;;;;;;;11.10;9.83;;;;;;;29.93;51.00;97291.84;5008494;28;20205;-77
2023/06/23 09:13:16;;;;;;;13.57;12.20;;;;;;;29.68;51.76;97296.59;5008089;28;20621;-76
2023/06/23 09:15:46;;;;;;;10.60;8.73;;;;;;;29.37;52.26;97293.22;5009399;28;20300;-79
2023/06/23 09:18:32;;;;;;;11.70;10.53;;;;;;;29.33;51.94;97278.59;5007234;28;20210;-79
2023/06/23 09:21:03;;;;;;;10.77;8.67;;;;;;;29.80;50.61;97284.47;4992071;28;20204;-78
2023/06/23 09:23:31;;;;;;;10.90;9.77;;;;;;;29.64;51.00;97284.63;5008401;28;20203;-76
2023/06/23 09:26:03;;;;;;;12.13;9.20;;;;;;;29.39;52.37;97288.53;4990510;28;20233;-77
2023/06/23 09:28:35;;;;;;;10.27;9.37;;;;;;;29.26;51.57;97280.34;5008900;28;20705;-79
2023/06/23 09:31:09;;;;;;;9.73;8.10;;;;;;;29.13;52.07;97258.72;5006941;28;20206;-78
2023/06/23 09:33:46;;;;;;;10.37;8.37;;;;;;;29.04;52.08;97289.97;5008925;28;20204;-79
2023/06/23 09:36:13;;;;;;;9.57;8.57;;;;;;;29.27;51.40;97273.97;5007777;28;20203;-77
2023/06/23 09:38:42;;;;;;;13.10;10.57;;;;;;;29.55;50.42;97267.06;5006927;28;20199;-79
2023/06/23 09:41:17;;;;;;;9.90;8.90;;;;;;;29.60;50.44;97267.31;4975615;28;20298;-78
2023/06/23 09:43:47;;;;;;;10.83;8.40;;;;;;;29.90;51.17;97270.88;5007010;28;20213;-78
2023/06/23 09:46:15;;;;;;;9.47;8.47;;;;;;;30.03;48.97;97263.84;5008988;28;20285;-80
2023/06/23 09:48:44;;;;;;;10.70;9.27;;;;;;;29.92;49.50;97259.00;5006773;28;20266;-77
2023/06/23 09:51:12;;;;;;;12.33;10.23;;;;;;;29.93;50.98;97263.31;5008693;28;20201;-78
2023/06/23 09:53:40;;;;;;;10.37;9.20;;;;;;;29.72;51.64;97269.38;5007570;28;20226;-78
2023/06/23 09:56:14;;;;;;;13.07;10.10;;;;;;;29.65;52.03;97254.25;5007656;28;20229;-77
2023/06/23 09:58:42;;;;;;;12.90;11.17;;;;;;;29.98;51.32;97265.44;5008722;28;20195;-79
2023/06/23 10:01:15;;;;;;;9.70;8.80;;;;;;;29.99;50.40;97267.91;4989391;28;20206;-77
2023/06/23 10:03:48;;;;;;;9.17;8.27;;;;;;;30.29;48.67;97253.53;5008163;28;20215;-78
2023/06/23 10:06:37;;;;;;;12.33;8.70;;;;;;;30.81;47.08;97265.81;5006787;28;20246;-78
2023/06/23 10:09:10;;;;;;;8.57;7.70;;;;;;;30.80;46.80;97245.44;4990328;28;20226;-81
2023/06/23 10:11:39;;;;;;;10.57;9.20;;;;;;;30.87;46.43;97263.22;5008609;28;20234;-80
2023/06/23 10:14:11;;;;;;;10.10;8.57;;;;;;;30.78;46.88;97252.81;5006656;28;20631;-82
2023/06/23 10:16:45;;;;;;;9.60;7.70;;;;;;;31.02;45.96;97260.47;5008161;28;20207;-78
2023/06/23 10:19:13;;;;;;;10.23;8.20;;;;;;;30.88;46.66;97253.34;5006411;28;20230;-77
2023/06/23 10:21:42;;;;;;;9.90;7.93;;;;;;;30.75;43.72;97235.31;5008271;28;20207;-77
2023/06/23 10:24:15;;;;;;;8.53;7.60;;;;;;;29.96;44.84;97254.94;5007452;28;20227;-78
2023/06/23 10:26:44;;;;;;;8.50;7.33;;;;;;;29.98;45.49;97242.22;5006731;28;20672;-76
2023/06/23 10:29:17;;;;;;;8.43;7.63;;;;;;;30.29;45.98;97240.19;5008040;28;20191;-76
2023/06/23 10:31:45;;;;;;;8.40;7.50;;;;;;;30.50;45.49;97236.72;5006746;28;20230;-77
2023/06/23 10:34:14;;;;;;;8.37;7.23;;;;;;;30.58;44.34;97249.97;5008244;28;20265;-79
2023/06/23 10:36:43;;;;;;;8.43;7.57;;;;;;;30.11;45.18;97239.69;5005078;28;20235;-77
2023/06/23 10:39:12;;;;;;;8.60;7.70;;;;;;;29.94;44.53;97238.25;5016276;28;20234;-77
2023/06/23 10:41:40;;;;;;;11.60;9.90;;;;;;;29.92;44.56;97218.09;5016846;28;20201;-77
2023/06/23 10:44:08;;;;;;;9.30;8.27;;;;;;;29.65;46.10;97222.22;5014507;28;21735;-76
2023/06/23 10:46:36;;;;;;;10.70;8.07;;;;;;;29.74;46.54;97226.47;5007543;28;20211;-77
2023/06/23 10:49:05;;;;;;;10.50;8.00;;;;;;;30.25;46.32;97230.81;5002308;28;20202;-79
2023/06/23 10:51:34;;;;;;;8.00;7.27;;;;;;;30.22;46.06;97220.53;5024590;28;20261;-77
2023/06/23 10:54:05;;;;;;;10.70;8.70;;;;;;;30.49;46.31;97233.19;5018086;28;20298;-78
2023/06/23 10:56:37;;;;;;;11.30;8.20;;;;;;;30.22;46.58;97225.88;5026096;28;20267;-76
2023/06/23 10:59:21;;;;;;;9.20;8.30;;;;;;;30.28;47.01;97210.91;5026260;28;20221;-76
2023/06/23 11:02:01;;;;;;;10.23;9.23;;;;;;;30.29;46.70;97226.81;5024817;28;20204;-78
2023/06/23 11:04:32;;;;;;;10.07;8.17;;;;;;;29.77;46.36;97187.88;5026026;28;20222;-76
2023/06/23 11:07:04;;;;;;;9.50;8.53;;;;;;;30.10;47.46;97215.84;5024912;28;20258;-77
2023/06/23 11:09:52;;;;;;;9.03;8.23;;;;;;;29.98;48.30;97212.84;5025953;28;20199;-78
2023/06/23 11:12:32;;;;;;;9.70;8.73;;;;;;;30.07;47.71;97209.03;5008755;28;20216;-77
2023/06/23 11:15:08;;;;;;;12.17;8.90;;;;;;;30.65;48.18;97215.25;5025081;28;20247;-78
2023/06/23 11:18:02;;;;;;;11.23;9.03;;;;;;;30.97;46.61;97198.72;5026579;28;20201;-76
2023/06/23 11:20:32;;;;;;;9.80;8.87;;;;;;;30.90;46.53;97209.34;5025884;28;20260;-78
2023/06/23 11:23:03;;;;;;;10.60;8.40;;;;;;;31.35;45.38;97210.72;5025627;28;20195;-78
2023/06/23 11:25:51;;;;;;;9.40;8.00;;;;;;;30.72;46.25;97205.44;5026344;28;20607;-77
2023/06/23 11:28:28;;;;;;;9.50;8.60;;;;;;;31.20;45.15;97207.34;5024500;28;20202;-77
2023/06/23 11:31:15;;;;;;;9.07;7.97;;;;;;;31.48;44.51;97210.84;5026489;28;20669;-77
2023/06/23 11:33:55;;;;;;;10.13;8.67;;;;;;;30.92;45.38;97195.78;5026413;28;20198;-78
2023/06/23 11:36:27;;;;;;;9.77;7.77;;;;;;;31.26;44.64;97198.53;5024509;28;20201;-77
2023/06/23 11:39:00;;;;;;;9.13;8.10;;;;;;;30.72;46.67;97184.06;5026210;28;20208;-77
2023/06/23 11:41:31;;;;;;;9.30;8.37;;;;;;;30.82;46.46;97195.25;5024621;28;20257;-79
2023/06/23 11:44:03;;;;;;;9.17;8.27;;;;;;;30.99;45.75;97199.34;5008062;28;20199;-78
2023/06/23 11:46:34;;;;;;;9.32;8.43;;;;;;;31.19;44.81;97189.63;4982482;28;1235731;-78
2023/06/23 11:49:12;;;;;;;10.10;8.53;;;;;;;31.08;45.70;97190.13;5025868;28;20809;-78
2023/06/23 11:51:40;;;;;;;10.33;8.80;;;;;;;30.82;46.51;97179.19;5027141;28;20249;-77
2023/06/23 11:54:07;;;;;;;8.53;7.63;;;;;;;30.97;46.92;97188.00;5025637;28;20302;-77
2023/06/23 11:56:35;;;;;;;8.77;7.97;;;;;;;30.98;45.92;97189.66;5026953;28;20773;-78
2023/06/23 11:59:04;;;;;;;9.03;8.13;;;;;;;30.91;46.21;97183.44;5025563;28;20257;-78
2023/06/23 12:01:33;;;;;;;10.30;9.20;;;;;;;31.16;45.78;97176.63;5026110;28;20199;-77
2023/06/23 12:04:00;;;;;;;10.20;9.20;;;;;;;31.21;45.51;97164.31;5030435;28;20264;-77
2023/06/23 12:06:27;;;;;;;8.70;7.80;;;;;;;30.91;46.00;97162.03;5029186;28;20646;-77
2023/06/23 12:08:54;;;;;;;9.60;8.60;;;;;;;30.81;46.52;97178.34;5030750;28;20199;-77
2023/06/23 12:11:22;;;;;;;12.70;8.83;;;;;;;30.88;47.04;97179.28;5029025;28;20272;-77
2023/06/23 12:13:52;;;;;;;8.97;8.10;;;;;;;30.59;47.25;97173.22;5030597;28;20211;-78
2023/06/23 12:16:20;;;;;;;10.73;8.47;;;;;;;30.71;46.65;97174.38;5029387;28;20245;-76
2023/06/23 12:18:49;;;;;;;15.13;9.43;;;;;;;30.77;46.79;97138.84;5029860;28;20230;-81
2023/06/23 12:21:19;;;;;;;10.17;8.30;;;;;;;30.99;46.27;97164.56;5012535;28;20213;-78
2023/06/23 12:23:47;;;;;;;10.00;9.10;;;;;;;31.17;45.94;97160.38;5028678;28;20203;-77
2023/06/23 12:26:14;;;;;;;10.97;9.50;;;;;;;31.57;45.22;97169.53;5029947;28;20802;-78
2023/06/23 12:28:41;;;;;;;9.03;7.87;;;;;;;31.48;45.54;97133.19;5028301;28;20206;-77